sensor_id;sensor_type;location;lat;lon;timestamp;P1;durP1;ratioP1;P2;durP2;ratioP2
79640;SDS011;69115;49.904;14.390;2023-04-24T00:00:30;17.95;;;10.30;;
79640;SDS011;69115;49.904;14.390;2023-04-24T00:02:56;17.85;;;10.43;;
79640;SDS011;69115;49.904;14.390;2023-04-24T00:05:23;14.90;;;9.32;;
79640;SDS011;69115;49.904;14.390;2023-04-24T00:07:48;17.58;;;9.43;;
79640;SDS011;69115;49.904;14.390;2023-04-24T00:10:17;18.05;;;9.50;;
79640;SDS011;69115;49.904;14.390;2023-04-24T00:12:42;17.95;;;9.75;;
79640;SDS011;69115;49.904;14.390;2023-04-24T00:15:08;13.85;;;8.13;;
79640;SDS011;69115;49.904;14.390;2023-04-24T00:17:34;19.00;;;9.48;;
79640;SDS011;69115;49.904;14.390;2023-04-24T00:19:59;13.68;;;8.73;;
79640;SDS011;69115;49.904;14.390;2023-04-24T00:22:27;13.20;;;7.97;;
79640;SDS011;69115;49.904;14.390;2023-04-24T00:24:53;12.38;;;7.57;;
79640;SDS011;69115;49.904;14.390;2023-04-24T00:27:18;16.15;;;8.75;;
79640;SDS011;69115;49.904;14.390;2023-04-24T00:29:44;13.15;;;7.68;;
79640;SDS011;69115;49.904;14.390;2023-04-24T00:32:09;14.88;;;8.63;;
79640;SDS011;69115;49.904;14.390;2023-04-24T00:34:34;13.27;;;8.33;;
79640;SDS011;69115;49.904;14.390;2023-04-24T00:37:00;15.23;;;8.52;;
79640;SDS011;69115;49.904;14.390;2023-04-24T00:39:26;16.48;;;9.05;;
79640;SDS011;69115;49.904;14.390;2023-04-24T00:41:51;13.25;;;7.70;;
79640;SDS011;69115;49.904;14.390;2023-04-24T00:44:17;14.93;;;8.55;;
79640;SDS011;69115;49.904;14.390;2023-04-24T00:46:43;14.27;;;7.90;;
79640;SDS011;69115;49.904;14.390;2023-04-24T00:49:08;13.60;;;8.30;;
79640;SDS011;69115;49.904;14.390;2023-04-24T00:51:34;16.70;;;8.63;;
79640;SDS011;69115;49.904;14.390;2023-04-24T00:53:59;12.68;;;8.38;;
79640;SDS011;69115;49.904;14.390;2023-04-24T00:56:25;12.93;;;7.38;;
79640;SDS011;69115;49.904;14.390;2023-04-24T00:58:51;12.95;;;7.45;;
79640;SDS011;69115;49.904;14.390;2023-04-24T01:01:18;10.57;;;6.70;;
79640;SDS011;69115;49.904;14.390;2023-04-24T01:03:45;11.15;;;6.60;;
79640;SDS011;69115;49.904;14.390;2023-04-24T01:06:11;9.20;;;6.20;;
79640;SDS011;69115;49.904;14.390;2023-04-24T01:08:37;10.40;;;5.63;;
79640;SDS011;69115;49.904;14.390;2023-04-24T01:11:03;12.80;;;7.22;;
79640;SDS011;69115;49.904;14.390;2023-04-24T01:13:29;13.32;;;7.50;;
79640;SDS011;69115;49.904;14.390;2023-04-24T01:15:56;11.98;;;7.20;;
79640;SDS011;69115;49.904;14.390;2023-04-24T01:18:22;10.05;;;5.93;;
79640;SDS011;69115;49.904;14.390;2023-04-24T01:20:47;13.80;;;7.57;;
79640;SDS011;69115;49.904;14.390;2023-04-24T01:23:16;11.60;;;6.40;;
79640;SDS011;69115;49.904;14.390;2023-04-24T01:25:42;11.52;;;6.75;;
79640;SDS011;69115;49.904;14.390;2023-04-24T01:28:07;11.10;;;6.90;;
79640;SDS011;69115;49.904;14.390;2023-04-24T01:30:33;12.30;;;7.35;;
79640;SDS011;69115;49.904;14.390;2023-04-24T01:32:58;12.77;;;8.23;;
79640;SDS011;69115;49.904;14.390;2023-04-24T01:35:24;10.52;;;6.80;;
79640;SDS011;69115;49.904;14.390;2023-04-24T01:37:50;15.25;;;9.13;;
79640;SDS011;69115;49.904;14.390;2023-04-24T01:40:15;13.57;;;8.02;;
79640;SDS011;69115;49.904;14.390;2023-04-24T01:42:41;14.68;;;7.78;;
79640;SDS011;69115;49.904;14.390;2023-04-24T01:45:06;11.02;;;6.28;;
79640;SDS011;69115;49.904;14.390;2023-04-24T01:47:35;15.95;;;8.73;;
79640;SDS011;69115;49.904;14.390;2023-04-24T01:50:01;13.90;;;8.00;;
79640;SDS011;69115;49.904;14.390;2023-04-24T01:52:28;14.18;;;7.93;;
79640;SDS011;69115;49.904;14.390;2023-04-24T01:54:56;12.32;;;7.57;;
79640;SDS011;69115;49.904;14.390;2023-04-24T01:57:22;12.27;;;7.60;;
79640;SDS011;69115;49.904;14.390;2023-04-24T01:59:47;11.75;;;7.28;;
79640;SDS011;69115;49.904;14.390;2023-04-24T02:02:13;11.55;;;6.97;;
79640;SDS011;69115;49.904;14.390;2023-04-24T02:04:39;11.45;;;6.75;;
79640;SDS011;69115;49.904;14.390;2023-04-24T02:07:04;10.85;;;6.95;;
79640;SDS011;69115;49.904;14.390;2023-04-24T02:09:30;11.68;;;7.50;;
79640;SDS011;69115;49.904;14.390;2023-04-24T02:11:55;13.65;;;7.68;;
79640;SDS011;69115;49.904;14.390;2023-04-24T02:14:21;11.52;;;7.00;;
79640;SDS011;69115;49.904;14.390;2023-04-24T02:16:46;13.30;;;7.57;;
79640;SDS011;69115;49.904;14.390;2023-04-24T02:19:12;12.32;;;7.22;;
79640;SDS011;69115;49.904;14.390;2023-04-24T02:21:37;13.13;;;7.60;;
79640;SDS011;69115;49.904;14.390;2023-04-24T02:24:03;13.18;;;7.70;;
79640;SDS011;69115;49.904;14.390;2023-04-24T02:26:28;10.75;;;7.35;;
79640;SDS011;69115;49.904;14.390;2023-04-24T02:28:53;13.60;;;9.18;;
79640;SDS011;69115;49.904;14.390;2023-04-24T02:31:19;13.65;;;8.10;;
79640;SDS011;69115;49.904;14.390;2023-04-24T02:33:44;17.83;;;8.27;;
79640;SDS011;69115;49.904;14.390;2023-04-24T02:36:10;14.43;;;8.40;;
79640;SDS011;69115;49.904;14.390;2023-04-24T02:38:35;12.30;;;7.57;;
79640;SDS011;69115;49.904;14.390;2023-04-24T02:41:00;10.85;;;6.88;;
79640;SDS011;69115;49.904;14.390;2023-04-24T02:43:27;12.75;;;6.50;;
79640;SDS011;69115;49.904;14.390;2023-04-24T02:45:52;9.98;;;6.15;;
79640;SDS011;69115;49.904;14.390;2023-04-24T02:48:18;15.30;;;8.02;;
79640;SDS011;69115;49.904;14.390;2023-04-24T02:50:45;12.60;;;7.05;;
79640;SDS011;69115;49.904;14.390;2023-04-24T02:53:11;12.55;;;7.05;;
79640;SDS011;69115;49.904;14.390;2023-04-24T02:55:36;15.13;;;8.85;;
79640;SDS011;69115;49.904;14.390;2023-04-24T02:58:01;14.83;;;8.17;;
79640;SDS011;69115;49.904;14.390;2023-04-24T03:00:27;14.37;;;8.57;;
79640;SDS011;69115;49.904;14.390;2023-04-24T03:02:52;12.48;;;7.57;;
79640;SDS011;69115;49.904;14.390;2023-04-24T03:05:18;12.55;;;8.35;;
79640;SDS011;69115;49.904;14.390;2023-04-24T03:07:43;16.95;;;9.00;;
79640;SDS011;69115;49.904;14.390;2023-04-24T03:10:09;12.00;;;7.82;;
79640;SDS011;69115;49.904;14.390;2023-04-24T03:12:34;13.52;;;8.95;;
79640;SDS011;69115;49.904;14.390;2023-04-24T03:14:59;16.10;;;9.20;;
79640;SDS011;69115;49.904;14.390;2023-04-24T03:17:25;16.67;;;9.27;;
79640;SDS011;69115;49.904;14.390;2023-04-24T03:19:50;16.48;;;9.20;;
79640;SDS011;69115;49.904;14.390;2023-04-24T03:22:16;12.30;;;7.72;;
79640;SDS011;69115;49.904;14.390;2023-04-24T03:24:41;15.65;;;8.98;;
79640;SDS011;69115;49.904;14.390;2023-04-24T03:27:07;14.23;;;8.50;;
79640;SDS011;69115;49.904;14.390;2023-04-24T03:29:32;13.10;;;8.07;;
79640;SDS011;69115;49.904;14.390;2023-04-24T03:31:57;12.13;;;7.77;;
79640;SDS011;69115;49.904;14.390;2023-04-24T03:34:23;13.40;;;8.07;;
79640;SDS011;69115;49.904;14.390;2023-04-24T03:36:48;13.93;;;8.13;;
79640;SDS011;69115;49.904;14.390;2023-04-24T03:39:14;12.70;;;7.32;;
79640;SDS011;69115;49.904;14.390;2023-04-24T03:41:39;12.40;;;7.20;;
79640;SDS011;69115;49.904;14.390;2023-04-24T03:44:05;12.32;;;6.38;;
79640;SDS011;69115;49.904;14.390;2023-04-24T03:46:30;12.93;;;7.65;;
79640;SDS011;69115;49.904;14.390;2023-04-24T03:48:55;11.30;;;6.95;;
79640;SDS011;69115;49.904;14.390;2023-04-24T03:51:21;11.32;;;6.53;;
79640;SDS011;69115;49.904;14.390;2023-04-24T03:53:47;9.38;;;6.10;;
79640;SDS011;69115;49.904;14.390;2023-04-24T03:56:12;10.73;;;5.90;;
79640;SDS011;69115;49.904;14.390;2023-04-24T03:58:38;7.40;;;5.37;;
79640;SDS011;69115;49.904;14.390;2023-04-24T04:01:03;8.00;;;4.68;;
79640;SDS011;69115;49.904;14.390;2023-04-24T04:03:28;6.35;;;4.20;;
79640;SDS011;69115;49.904;14.390;2023-04-24T04:05:54;8.10;;;4.72;;
79640;SDS011;69115;49.904;14.390;2023-04-24T04:08:19;11.40;;;5.53;;
79640;SDS011;69115;49.904;14.390;2023-04-24T04:10:45;14.48;;;6.07;;
79640;SDS011;69115;49.904;14.390;2023-04-24T04:13:10;10.13;;;5.80;;
79640;SDS011;69115;49.904;14.390;2023-04-24T04:15:35;13.65;;;7.03;;
79640;SDS011;69115;49.904;14.390;2023-04-24T04:18:01;14.55;;;8.15;;
79640;SDS011;69115;49.904;14.390;2023-04-24T04:20:26;15.65;;;7.75;;
79640;SDS011;69115;49.904;14.390;2023-04-24T04:22:52;12.13;;;6.70;;
79640;SDS011;69115;49.904;14.390;2023-04-24T04:25:17;10.55;;;7.32;;
79640;SDS011;69115;49.904;14.390;2023-04-24T04:27:44;11.70;;;6.65;;
79640;SDS011;69115;49.904;14.390;2023-04-24T04:30:10;10.25;;;6.47;;
79640;SDS011;69115;49.904;14.390;2023-04-24T04:32:36;9.35;;;5.90;;
79640;SDS011;69115;49.904;14.390;2023-04-24T04:35:03;7.70;;;5.75;;
79640;SDS011;69115;49.904;14.390;2023-04-24T04:37:32;8.90;;;5.55;;
79640;SDS011;69115;49.904;14.390;2023-04-24T04:40:01;8.23;;;5.25;;
79640;SDS011;69115;49.904;14.390;2023-04-24T04:42:31;8.80;;;4.65;;
79640;SDS011;69115;49.904;14.390;2023-04-24T04:44:57;11.55;;;5.88;;
79640;SDS011;69115;49.904;14.390;2023-04-24T04:47:23;7.25;;;4.70;;
79640;SDS011;69115;49.904;14.390;2023-04-24T04:49:49;9.82;;;5.18;;
79640;SDS011;69115;49.904;14.390;2023-04-24T04:52:16;8.68;;;5.60;;
79640;SDS011;69115;49.904;14.390;2023-04-24T04:54:42;10.63;;;5.47;;
79640;SDS011;69115;49.904;14.390;2023-04-24T04:57:08;13.93;;;6.20;;
79640;SDS011;69115;49.904;14.390;2023-04-24T04:59:33;7.43;;;5.20;;
79640;SDS011;69115;49.904;14.390;2023-04-24T05:01:59;12.68;;;7.07;;
79640;SDS011;69115;49.904;14.390;2023-04-24T05:04:25;12.13;;;6.80;;
79640;SDS011;69115;49.904;14.390;2023-04-24T05:06:51;17.77;;;8.07;;
79640;SDS011;69115;49.904;14.390;2023-04-24T05:09:16;12.25;;;6.65;;
79640;SDS011;69115;49.904;14.390;2023-04-24T05:11:42;14.15;;;7.22;;
79640;SDS011;69115;49.904;14.390;2023-04-24T05:14:07;13.20;;;6.97;;
79640;SDS011;69115;49.904;14.390;2023-04-24T05:16:33;12.40;;;6.90;;
79640;SDS011;69115;49.904;14.390;2023-04-24T05:18:58;10.40;;;4.97;;
79640;SDS011;69115;49.904;14.390;2023-04-24T05:21:23;10.55;;;6.72;;
79640;SDS011;69115;49.904;14.390;2023-04-24T05:23:50;9.43;;;5.75;;
79640;SDS011;69115;49.904;14.390;2023-04-24T05:26:15;7.40;;;4.70;;
79640;SDS011;69115;49.904;14.390;2023-04-24T05:28:41;8.95;;;5.18;;
79640;SDS011;69115;49.904;14.390;2023-04-24T05:31:06;9.52;;;5.95;;
79640;SDS011;69115;49.904;14.390;2023-04-24T05:33:31;8.32;;;5.53;;
79640;SDS011;69115;49.904;14.390;2023-04-24T05:35:57;9.65;;;5.35;;
79640;SDS011;69115;49.904;14.390;2023-04-24T05:38:22;9.65;;;5.68;;
79640;SDS011;69115;49.904;14.390;2023-04-24T05:40:48;15.50;;;6.28;;
79640;SDS011;69115;49.904;14.390;2023-04-24T05:43:13;10.95;;;6.10;;
79640;SDS011;69115;49.904;14.390;2023-04-24T05:45:39;9.23;;;5.20;;
79640;SDS011;69115;49.904;14.390;2023-04-24T05:48:04;11.98;;;5.97;;
79640;SDS011;69115;49.904;14.390;2023-04-24T05:50:30;11.52;;;6.95;;
79640;SDS011;69115;49.904;14.390;2023-04-24T05:52:55;10.57;;;6.00;;
79640;SDS011;69115;49.904;14.390;2023-04-24T05:55:23;10.38;;;6.03;;
79640;SDS011;69115;49.904;14.390;2023-04-24T05:57:49;12.77;;;7.10;;
79640;SDS011;69115;49.904;14.390;2023-04-24T06:00:15;11.75;;;5.88;;
79640;SDS011;69115;49.904;14.390;2023-04-24T06:02:40;11.73;;;5.90;;
79640;SDS011;69115;49.904;14.390;2023-04-24T06:05:06;11.05;;;6.57;;
79640;SDS011;69115;49.904;14.390;2023-04-24T06:07:33;10.25;;;5.85;;
79640;SDS011;69115;49.904;14.390;2023-04-24T06:09:58;9.25;;;5.82;;
79640;SDS011;69115;49.904;14.390;2023-04-24T06:12:24;7.88;;;5.20;;
79640;SDS011;69115;49.904;14.390;2023-04-24T06:14:50;9.82;;;6.40;;
79640;SDS011;69115;49.904;14.390;2023-04-24T06:17:16;12.15;;;7.15;;
79640;SDS011;69115;49.904;14.390;2023-04-24T06:19:41;9.98;;;6.47;;
79640;SDS011;69115;49.904;14.390;2023-04-24T06:22:07;8.38;;;5.28;;
79640;SDS011;69115;49.904;14.390;2023-04-24T06:24:33;9.10;;;5.13;;
79640;SDS011;69115;49.904;14.390;2023-04-24T06:26:59;7.28;;;4.65;;
79640;SDS011;69115;49.904;14.390;2023-04-24T06:29:26;8.05;;;5.18;;
79640;SDS011;69115;49.904;14.390;2023-04-24T06:31:51;14.15;;;7.88;;
79640;SDS011;69115;49.904;14.390;2023-04-24T06:34:17;23.30;;;11.88;;
79640;SDS011;69115;49.904;14.390;2023-04-24T06:36:42;16.25;;;9.63;;
79640;SDS011;69115;49.904;14.390;2023-04-24T06:39:08;15.80;;;6.50;;
79640;SDS011;69115;49.904;14.390;2023-04-24T06:41:34;14.70;;;6.93;;
79640;SDS011;69115;49.904;14.390;2023-04-24T06:43:59;30.42;;;9.27;;
79640;SDS011;69115;49.904;14.390;2023-04-24T06:46:25;12.52;;;6.72;;
79640;SDS011;69115;49.904;14.390;2023-04-24T06:48:52;13.13;;;7.25;;
79640;SDS011;69115;49.904;14.390;2023-04-24T06:51:21;11.93;;;5.72;;
79640;SDS011;69115;49.904;14.390;2023-04-24T06:53:51;6.78;;;4.70;;
79640;SDS011;69115;49.904;14.390;2023-04-24T06:56:17;8.18;;;5.40;;
79640;SDS011;69115;49.904;14.390;2023-04-24T06:58:43;11.23;;;4.95;;
79640;SDS011;69115;49.904;14.390;2023-04-24T07:01:09;12.77;;;7.32;;
79640;SDS011;69115;49.904;14.390;2023-04-24T07:03:35;10.63;;;6.68;;
79640;SDS011;69115;49.904;14.390;2023-04-24T07:06:00;13.18;;;7.43;;
79640;SDS011;69115;49.904;14.390;2023-04-24T07:08:26;10.65;;;6.55;;
79640;SDS011;69115;49.904;14.390;2023-04-24T07:10:51;9.70;;;5.85;;
79640;SDS011;69115;49.904;14.390;2023-04-24T07:13:17;11.73;;;6.78;;
79640;SDS011;69115;49.904;14.390;2023-04-24T07:15:42;9.38;;;5.63;;
79640;SDS011;69115;49.904;14.390;2023-04-24T07:18:08;8.25;;;4.57;;
79640;SDS011;69115;49.904;14.390;2023-04-24T07:20:33;7.60;;;5.75;;
79640;SDS011;69115;49.904;14.390;2023-04-24T07:22:59;10.77;;;6.53;;
79640;SDS011;69115;49.904;14.390;2023-04-24T07:25:24;9.75;;;6.53;;
79640;SDS011;69115;49.904;14.390;2023-04-24T07:27:50;9.38;;;5.70;;
79640;SDS011;69115;49.904;14.390;2023-04-24T07:30:15;10.23;;;6.63;;
79640;SDS011;69115;49.904;14.390;2023-04-24T07:32:41;7.75;;;5.20;;
79640;SDS011;69115;49.904;14.390;2023-04-24T07:35:06;9.65;;;5.95;;
79640;SDS011;69115;49.904;14.390;2023-04-24T07:37:32;9.52;;;6.32;;
79640;SDS011;69115;49.904;14.390;2023-04-24T07:39:57;9.75;;;6.38;;
79640;SDS011;69115;49.904;14.390;2023-04-24T07:42:22;9.35;;;6.50;;
79640;SDS011;69115;49.904;14.390;2023-04-24T07:44:48;9.10;;;5.97;;
79640;SDS011;69115;49.904;14.390;2023-04-24T07:47:14;6.57;;;3.88;;
79640;SDS011;69115;49.904;14.390;2023-04-24T07:49:42;7.82;;;5.72;;
79640;SDS011;69115;49.904;14.390;2023-04-24T07:52:07;10.15;;;6.97;;
79640;SDS011;69115;49.904;14.390;2023-04-24T07:54:33;7.00;;;5.22;;
79640;SDS011;69115;49.904;14.390;2023-04-24T07:56:58;10.63;;;7.03;;
79640;SDS011;69115;49.904;14.390;2023-04-24T07:59:24;9.88;;;6.93;;
79640;SDS011;69115;49.904;14.390;2023-04-24T08:01:49;7.95;;;4.97;;
79640;SDS011;69115;49.904;14.390;2023-04-24T08:04:14;6.68;;;4.93;;
79640;SDS011;69115;49.904;14.390;2023-04-24T08:06:40;30.70;;;19.45;;
79640;SDS011;69115;49.904;14.390;2023-04-24T08:09:05;25.20;;;16.27;;
79640;SDS011;69115;49.904;14.390;2023-04-24T08:11:32;28.75;;;14.25;;
79640;SDS011;69115;49.904;14.390;2023-04-24T08:13:59;35.90;;;13.77;;
79640;SDS011;69115;49.904;14.390;2023-04-24T08:16:25;26.92;;;12.80;;
79640;SDS011;69115;49.904;14.390;2023-04-24T08:18:50;26.15;;;11.48;;
79640;SDS011;69115;49.904;14.390;2023-04-24T08:21:16;18.38;;;11.20;;
79640;SDS011;69115;49.904;14.390;2023-04-24T08:23:44;12.10;;;8.00;;
79640;SDS011;69115;49.904;14.390;2023-04-24T08:26:14;9.32;;;6.35;;
79640;SDS011;69115;49.904;14.390;2023-04-24T08:28:42;9.10;;;6.10;;
79640;SDS011;69115;49.904;14.390;2023-04-24T08:31:08;10.35;;;6.60;;
79640;SDS011;69115;49.904;14.390;2023-04-24T08:33:38;13.27;;;7.30;;
79640;SDS011;69115;49.904;14.390;2023-04-24T08:36:12;14.55;;;9.13;;
79640;SDS011;69115;49.904;14.390;2023-04-24T08:38:47;10.27;;;6.80;;
79640;SDS011;69115;49.904;14.390;2023-04-24T08:41:21;5.97;;;3.67;;
79640;SDS011;69115;49.904;14.390;2023-04-24T08:43:56;5.82;;;4.07;;
79640;SDS011;69115;49.904;14.390;2023-04-24T08:46:25;4.85;;;2.92;;
79640;SDS011;69115;49.904;14.390;2023-04-24T08:48:54;3.88;;;2.67;;
79640;SDS011;69115;49.904;14.390;2023-04-24T08:51:25;5.88;;;2.92;;
79640;SDS011;69115;49.904;14.390;2023-04-24T08:53:54;5.57;;;3.47;;
79640;SDS011;69115;49.904;14.390;2023-04-24T08:56:23;5.05;;;3.60;;
79640;SDS011;69115;49.904;14.390;2023-04-24T08:58:51;6.82;;;3.85;;
79640;SDS011;69115;49.904;14.390;2023-04-24T09:01:21;5.95;;;3.30;;
79640;SDS011;69115;49.904;14.390;2023-04-24T09:03:50;6.13;;;3.80;;
79640;SDS011;69115;49.904;14.390;2023-04-24T09:06:19;3.95;;;2.80;;
79640;SDS011;69115;49.904;14.390;2023-04-24T09:08:50;7.20;;;3.10;;
79640;SDS011;69115;49.904;14.390;2023-04-24T09:11:18;4.25;;;3.22;;
79640;SDS011;69115;49.904;14.390;2023-04-24T09:13:45;4.68;;;2.60;;
79640;SDS011;69115;49.904;14.390;2023-04-24T09:16:11;5.25;;;3.30;;
79640;SDS011;69115;49.904;14.390;2023-04-24T09:18:37;6.82;;;3.15;;
79640;SDS011;69115;49.904;14.390;2023-04-24T09:21:09;3.92;;;2.63;;
79640;SDS011;69115;49.904;14.390;2023-04-24T09:23:34;5.78;;;3.13;;
79640;SDS011;69115;49.904;14.390;2023-04-24T09:26:00;9.18;;;6.22;;
79640;SDS011;69115;49.904;14.390;2023-04-24T09:28:36;8.60;;;4.60;;
79640;SDS011;69115;49.904;14.390;2023-04-24T09:33:33;9.88;;;4.55;;
79640;SDS011;69115;49.904;14.390;2023-04-24T09:35:58;6.38;;;4.00;;
79640;SDS011;69115;49.904;14.390;2023-04-24T09:38:36;5.45;;;3.78;;
79640;SDS011;69115;49.904;14.390;2023-04-24T09:41:03;5.75;;;4.45;;
79640;SDS011;69115;49.904;14.390;2023-04-24T09:43:30;6.53;;;4.10;;
79640;SDS011;69115;49.904;14.390;2023-04-24T09:45:56;5.43;;;3.80;;
79640;SDS011;69115;49.904;14.390;2023-04-24T09:48:33;6.72;;;4.45;;
79640;SDS011;69115;49.904;14.390;2023-04-24T09:51:00;7.50;;;4.82;;
79640;SDS011;69115;49.904;14.390;2023-04-24T09:53:26;9.85;;;5.45;;
79640;SDS011;69115;49.904;14.390;2023-04-24T09:55:52;8.35;;;5.50;;
79640;SDS011;69115;49.904;14.390;2023-04-24T09:58:18;6.35;;;4.68;;
79640;SDS011;69115;49.904;14.390;2023-04-24T10:00:49;6.57;;;5.03;;
79640;SDS011;69115;49.904;14.390;2023-04-24T10:03:15;7.80;;;4.95;;
79640;SDS011;69115;49.904;14.390;2023-04-24T10:05:42;7.45;;;4.28;;
79640;SDS011;69115;49.904;14.390;2023-04-24T10:08:11;8.07;;;4.82;;
79640;SDS011;69115;49.904;14.390;2023-04-24T10:10:41;7.30;;;3.80;;
79640;SDS011;69115;49.904;14.390;2023-04-24T10:13:12;7.40;;;4.15;;
79640;SDS011;69115;49.904;14.390;2023-04-24T10:15:40;5.07;;;3.10;;
79640;SDS011;69115;49.904;14.390;2023-04-24T10:18:06;5.30;;;2.30;;
79640;SDS011;69115;49.904;14.390;2023-04-24T10:20:32;5.28;;;2.63;;
79640;SDS011;69115;49.904;14.390;2023-04-24T10:22:58;4.38;;;2.20;;
79640;SDS011;69115;49.904;14.390;2023-04-24T10:25:29;3.72;;;2.13;;
79640;SDS011;69115;49.904;14.390;2023-04-24T10:27:58;3.90;;;2.40;;
79640;SDS011;69115;49.904;14.390;2023-04-24T10:30:28;5.88;;;2.50;;
79640;SDS011;69115;49.904;14.390;2023-04-24T10:32:54;3.50;;;2.10;;
79640;SDS011;69115;49.904;14.390;2023-04-24T10:35:20;5.10;;;2.10;;
79640;SDS011;69115;49.904;14.390;2023-04-24T10:38:06;2.92;;;1.95;;
79640;SDS011;69115;49.904;14.390;2023-04-24T10:40:34;5.60;;;2.10;;
79640;SDS011;69115;49.904;14.390;2023-04-24T10:43:03;4.15;;;1.85;;
79640;SDS011;69115;49.904;14.390;2023-04-24T10:45:36;4.57;;;2.15;;
79640;SDS011;69115;49.904;14.390;2023-04-24T10:48:08;4.18;;;2.15;;
79640;SDS011;69115;49.904;14.390;2023-04-24T10:50:42;4.50;;;2.10;;
79640;SDS011;69115;49.904;14.390;2023-04-24T10:53:12;4.55;;;1.88;;
79640;SDS011;69115;49.904;14.390;2023-04-24T10:55:42;3.03;;;1.80;;
79640;SDS011;69115;49.904;14.390;2023-04-24T10:58:09;2.35;;;1.65;;
79640;SDS011;69115;49.904;14.390;2023-04-24T11:00:37;4.30;;;2.10;;
79640;SDS011;69115;49.904;14.390;2023-04-24T11:05:59;3.00;;;1.90;;
79640;SDS011;69115;49.904;14.390;2023-04-24T11:11:01;2.97;;;1.70;;
79640;SDS011;69115;49.904;14.390;2023-04-24T11:14:14;2.35;;;1.67;;
79640;SDS011;69115;49.904;14.390;2023-04-24T11:16:21;3.30;;;1.85;;
79640;SDS011;69115;49.904;14.390;2023-04-24T11:19:07;4.20;;;1.88;;
79640;SDS011;69115;49.904;14.390;2023-04-24T11:26:57;15.27;;;2.63;;
79640;SDS011;69115;49.904;14.390;2023-04-24T11:35:01;2.38;;;1.55;;
79640;SDS011;69115;49.904;14.390;2023-04-24T11:37:33;2.75;;;1.42;;
79640;SDS011;69115;49.904;14.390;2023-04-24T11:40:00;3.47;;;1.52;;
79640;SDS011;69115;49.904;14.390;2023-04-24T11:42:26;5.28;;;2.17;;
79640;SDS011;69115;49.904;14.390;2023-04-24T11:44:53;9.90;;;1.90;;
79640;SDS011;69115;49.904;14.390;2023-04-24T11:47:27;6.38;;;1.63;;
79640;SDS011;69115;49.904;14.390;2023-04-24T11:49:55;4.43;;;1.50;;
79640;SDS011;69115;49.904;14.390;2023-04-24T11:52:21;3.10;;;1.80;;
79640;SDS011;69115;49.904;14.390;2023-04-24T11:54:49;4.75;;;1.80;;
79640;SDS011;69115;49.904;14.390;2023-04-24T11:57:15;4.30;;;1.50;;
79640;SDS011;69115;49.904;14.390;2023-04-24T11:59:41;3.60;;;1.70;;
79640;SDS011;69115;49.904;14.390;2023-04-24T12:02:07;3.05;;;1.50;;
79640;SDS011;69115;49.904;14.390;2023-04-24T12:04:39;3.45;;;1.30;;
79640;SDS011;69115;49.904;14.390;2023-04-24T12:07:05;4.88;;;2.10;;
79640;SDS011;69115;49.904;14.390;2023-04-24T12:09:43;3.05;;;1.60;;
79640;SDS011;69115;49.904;14.390;2023-04-24T12:12:13;3.33;;;1.67;;
79640;SDS011;69115;49.904;14.390;2023-04-24T12:17:16;1.60;;;1.10;;
79640;SDS011;69115;49.904;14.390;2023-04-24T12:19:46;4.25;;;1.23;;
79640;SDS011;69115;49.904;14.390;2023-04-24T12:22:12;2.35;;;1.00;;
79640;SDS011;69115;49.904;14.390;2023-04-24T12:25:00;5.22;;;1.65;;
79640;SDS011;69115;49.904;14.390;2023-04-24T12:27:24;2.65;;;1.40;;
79640;SDS011;69115;49.904;14.390;2023-04-24T12:29:55;5.07;;;1.80;;
79640;SDS011;69115;49.904;14.390;2023-04-24T12:32:21;2.42;;;1.48;;
79640;SDS011;69115;49.904;14.390;2023-04-24T12:34:47;2.40;;;1.30;;
79640;SDS011;69115;49.904;14.390;2023-04-24T12:37:12;1.90;;;1.40;;
79640;SDS011;69115;49.904;14.390;2023-04-24T12:39:37;2.65;;;1.40;;
79640;SDS011;69115;49.904;14.390;2023-04-24T12:42:03;1.92;;;1.30;;
79640;SDS011;69115;49.904;14.390;2023-04-24T12:44:32;1.85;;;1.30;;
79640;SDS011;69115;49.904;14.390;2023-04-24T12:47:01;4.82;;;3.35;;
79640;SDS011;69115;49.904;14.390;2023-04-24T12:49:28;4.22;;;2.80;;
79640;SDS011;69115;49.904;14.390;2023-04-24T12:51:55;4.03;;;1.90;;
79640;SDS011;69115;49.904;14.390;2023-04-24T12:54:20;3.17;;;1.70;;
79640;SDS011;69115;49.904;14.390;2023-04-24T12:56:46;2.70;;;1.52;;
79640;SDS011;69115;49.904;14.390;2023-04-24T12:59:11;3.08;;;1.60;;
79640;SDS011;69115;49.904;14.390;2023-04-24T13:01:36;3.83;;;1.55;;
79640;SDS011;69115;49.904;14.390;2023-04-24T13:04:02;5.88;;;1.80;;
79640;SDS011;69115;49.904;14.390;2023-04-24T13:06:27;3.67;;;1.85;;
79640;SDS011;69115;49.904;14.390;2023-04-24T13:08:53;2.33;;;1.80;;
79640;SDS011;69115;49.904;14.390;2023-04-24T13:11:20;3.42;;;1.80;;
79640;SDS011;69115;49.904;14.390;2023-04-24T13:13:46;3.10;;;1.65;;
79640;SDS011;69115;49.904;14.390;2023-04-24T13:16:12;2.72;;;1.80;;
79640;SDS011;69115;49.904;14.390;2023-04-24T13:18:37;2.90;;;1.80;;
79640;SDS011;69115;49.904;14.390;2023-04-24T13:21:03;4.65;;;1.95;;
79640;SDS011;69115;49.904;14.390;2023-04-24T13:23:28;3.40;;;2.17;;
79640;SDS011;69115;49.904;14.390;2023-04-24T13:25:54;3.55;;;1.92;;
79640;SDS011;69115;49.904;14.390;2023-04-24T13:28:22;3.22;;;1.98;;
79640;SDS011;69115;49.904;14.390;2023-04-24T13:30:48;3.45;;;1.90;;
79640;SDS011;69115;49.904;14.390;2023-04-24T13:33:14;4.72;;;1.88;;
79640;SDS011;69115;49.904;14.390;2023-04-24T13:35:40;2.60;;;1.85;;
79640;SDS011;69115;49.904;14.390;2023-04-24T13:38:05;3.85;;;1.85;;
79640;SDS011;69115;49.904;14.390;2023-04-24T13:40:31;5.88;;;2.42;;
79640;SDS011;69115;49.904;14.390;2023-04-24T13:42:57;6.68;;;1.98;;
79640;SDS011;69115;49.904;14.390;2023-04-24T13:45:22;4.40;;;1.80;;
79640;SDS011;69115;49.904;14.390;2023-04-24T13:47:48;3.55;;;1.95;;
79640;SDS011;69115;49.904;14.390;2023-04-24T13:50:13;3.17;;;1.80;;
79640;SDS011;69115;49.904;14.390;2023-04-24T13:52:39;3.20;;;1.77;;
79640;SDS011;69115;49.904;14.390;2023-04-24T13:55:05;3.10;;;1.70;;
79640;SDS011;69115;49.904;14.390;2023-04-24T13:57:31;4.18;;;1.80;;
79640;SDS011;69115;49.904;14.390;2023-04-24T13:59:57;2.30;;;1.70;;
79640;SDS011;69115;49.904;14.390;2023-04-24T14:02:26;2.50;;;1.60;;
79640;SDS011;69115;49.904;14.390;2023-04-24T14:04:52;2.92;;;1.67;;
79640;SDS011;69115;49.904;14.390;2023-04-24T14:07:17;2.60;;;1.80;;
79640;SDS011;69115;49.904;14.390;2023-04-24T14:09:43;2.85;;;1.92;;
79640;SDS011;69115;49.904;14.390;2023-04-24T14:12:09;3.35;;;1.70;;
79640;SDS011;69115;49.904;14.390;2023-04-24T14:14:34;2.97;;;1.90;;
79640;SDS011;69115;49.904;14.390;2023-04-24T14:17:00;3.13;;;1.88;;
79640;SDS011;69115;49.904;14.390;2023-04-24T14:19:25;2.95;;;1.83;;
79640;SDS011;69115;49.904;14.390;2023-04-24T14:21:51;3.55;;;1.90;;
79640;SDS011;69115;49.904;14.390;2023-04-24T14:24:16;2.92;;;1.90;;
79640;SDS011;69115;49.904;14.390;2023-04-24T14:26:43;4.72;;;2.08;;
79640;SDS011;69115;49.904;14.390;2023-04-24T14:29:11;2.72;;;1.80;;
79640;SDS011;69115;49.904;14.390;2023-04-24T14:31:39;3.22;;;2.10;;
79640;SDS011;69115;49.904;14.390;2023-04-24T14:34:09;3.55;;;1.70;;
79640;SDS011;69115;49.904;14.390;2023-04-24T14:36:38;3.42;;;2.00;;
79640;SDS011;69115;49.904;14.390;2023-04-24T14:39:08;3.33;;;1.90;;
79640;SDS011;69115;49.904;14.390;2023-04-24T14:41:36;3.42;;;1.80;;
79640;SDS011;69115;49.904;14.390;2023-04-24T14:44:05;4.95;;;2.42;;
79640;SDS011;69115;49.904;14.390;2023-04-24T14:46:34;7.55;;;1.90;;